createdAt,value
2018-07-04T03:01:00.388Z,0.00
2018-07-04T03:02:00.363Z,0.00
2018-07-04T03:03:00.219Z,0.00
2018-07-04T03:04:00.347Z,0.00
2018-07-04T03:05:00.197Z,0.00
2018-07-04T03:06:00.301Z,4.00
2018-07-04T03:07:00.287Z,4.00
2018-07-04T03:08:00.260Z,4.00
2018-07-04T03:09:00.394Z,0.00
2018-07-04T03:10:00.262Z,0.00
2018-07-04T03:11:00.133Z,4.00
2018-07-04T03:12:00.244Z,4.00
2018-07-04T03:13:00.255Z,4.00
2018-07-04T03:14:00.305Z,4.00
2018-07-04T03:15:00.220Z,4.00
2018-07-04T03:16:00.202Z,4.00
2018-07-04T03:17:00.201Z,4.00
2018-07-04T03:18:00.158Z,4.00
2018-07-04T03:19:00.067Z,4.00
2018-07-04T03:20:00.152Z,8.00
2018-07-04T03:21:00.039Z,8.00
2018-07-04T03:22:00.116Z,8.00
2018-07-04T03:23:00.074Z,4.00
2018-07-04T03:24:00.021Z,8.00
2018-07-04T03:25:00.105Z,8.00
2018-07-04T03:26:00.079Z,8.00
2018-07-04T03:26:59.994Z,12.00
2018-07-04T03:27:58.958Z,12.00
2018-07-04T03:29:00.070Z,8.00
2018-07-04T03:29:59.965Z,12.00
2018-07-04T03:31:00.187Z,12.00
2018-07-04T03:32:00.018Z,16.00
2018-07-04T03:32:59.961Z,12.00
2018-07-04T03:33:59.909Z,16.00
2018-07-04T03:34:59.904Z,16.00
2018-07-04T03:35:59.997Z,20.00
2018-07-04T03:36:59.883Z,20.00
2018-07-04T03:37:59.966Z,20.00
2018-07-04T03:38:59.977Z,20.00
2018-07-04T03:39:59.843Z,24.00
2018-07-04T03:40:59.934Z,24.00
2018-07-04T03:41:59.918Z,24.00
2018-07-04T03:42:59.902Z,24.00
2018-07-04T03:43:59.920Z,28.00
2018-07-04T03:44:59.895Z,28.00
2018-07-04T03:45:59.911Z,28.00
2018-07-04T03:46:59.930Z,28.00
2018-07-04T03:47:59.840Z,28.00
2018-07-04T03:48:59.845Z,32.00
2018-07-04T03:49:59.764Z,28.00
2018-07-04T03:50:59.728Z,32.00
2018-07-04T03:51:59.738Z,32.00
2018-07-04T03:52:59.693Z,32.00
2018-07-04T03:53:59.864Z,32.00
2018-07-04T03:54:59.816Z,32.00
2018-07-04T03:55:59.836Z,36.00
2018-07-04T03:56:59.765Z,36.00
2018-07-04T03:57:59.703Z,32.00
2018-07-04T03:58:59.754Z,36.00
2018-07-04T03:59:59.633Z,40.00
2018-07-04T04:00:59.612Z,40.00
2018-07-04T04:02:01.124Z,40.00
2018-07-04T04:02:59.741Z,40.00
2018-07-04T04:03:59.590Z,40.00
2018-07-04T04:04:59.719Z,44.00
2018-07-04T04:05:59.600Z,44.00
2018-07-04T04:07:00.077Z,48.00
2018-07-04T04:07:59.684Z,52.00
2018-07-04T04:08:59.643Z,52.00
2018-07-04T04:09:59.630Z,52.00
2018-07-04T04:10:59.718Z,56.00
2018-07-04T04:11:59.501Z,52.00
2018-07-04T04:12:59.483Z,52.00
2018-07-04T04:13:59.592Z,56.00
2018-07-04T04:14:59.491Z,56.00
2018-07-04T04:15:59.505Z,68.00
2018-07-04T04:16:59.547Z,72.00
2018-07-04T04:18:00.094Z,76.00
2018-07-04T04:18:59.544Z,76.00
2018-07-04T04:19:59.498Z,76.00
2018-07-04T04:20:59.517Z,76.00
2018-07-04T04:21:59.390Z,76.00
2018-07-04T04:22:59.511Z,76.00
2018-07-04T04:23:59.503Z,76.00
2018-07-04T04:24:59.485Z,72.00
2018-07-04T04:25:59.472Z,72.00
2018-07-04T04:26:59.406Z,72.00
2018-07-04T04:27:59.475Z,72.00
2018-07-04T04:28:59.435Z,76.00
2018-07-04T04:30:00.117Z,80.00
2018-07-04T04:30:59.403Z,84.00
2018-07-04T04:31:59.395Z,88.00
2018-07-04T04:32:59.429Z,92.00
2018-07-04T04:33:59.481Z,100.00
2018-07-04T04:34:59.373Z,100.00
2018-07-04T04:35:59.393Z,104.00
2018-07-04T04:36:59.359Z,100.00
2018-07-04T04:37:59.338Z,100.00
2018-07-04T04:38:59.439Z,100.00
2018-07-04T04:39:59.210Z,100.00
2018-07-04T04:40:59.348Z,100.00
2018-07-04T04:41:59.293Z,104.00
2018-07-04T04:42:59.277Z,104.00
2018-07-04T04:43:59.267Z,104.00
2018-07-04T04:44:59.154Z,108.00
2018-07-04T04:45:59.280Z,108.00
2018-07-04T04:46:59.336Z,116.00
2018-07-04T04:47:59.273Z,120.00
2018-07-04T04:48:59.261Z,128.00
2018-07-04T04:49:59.211Z,132.00
2018-07-04T04:50:59.101Z,136.00
2018-07-04T04:51:59.236Z,144.00
2018-07-04T04:52:59.179Z,156.00
2018-07-04T04:53:59.176Z,172.00
2018-07-04T04:55:01.106Z,192.00
2018-07-04T04:55:59.163Z,204.00
2018-07-04T04:56:59.159Z,200.00
2018-07-04T04:57:59.126Z,192.00
2018-07-04T04:58:59.113Z,188.00
2018-07-04T04:59:59.107Z,192.00
2018-07-04T05:00:59.136Z,196.00
2018-07-04T05:01:59.116Z,208.00
2018-07-04T05:02:58.965Z,212.00
2018-07-04T05:03:59.058Z,220.00
2018-07-04T05:04:59.135Z,232.00
2018-07-04T05:05:59.061Z,236.00
2018-07-04T05:06:59.038Z,224.00
2018-07-04T05:07:59.091Z,220.00
2018-07-04T05:08:59.026Z,216.00
2018-07-04T05:09:59.036Z,212.00
2018-07-04T05:10:59.092Z,196.00
2018-07-04T05:11:59.063Z,188.00
2018-07-04T05:12:58.867Z,188.00
2018-07-04T05:13:58.873Z,192.00
2018-07-04T05:14:58.857Z,196.00
2018-07-04T05:15:58.966Z,196.00
2018-07-04T05:16:58.938Z,200.00
2018-07-04T05:17:58.971Z,204.00
2018-07-04T05:18:58.919Z,208.00
2018-07-04T05:19:58.864Z,204.00
2018-07-04T05:20:58.926Z,204.00
2018-07-04T05:21:58.775Z,208.00
2018-07-04T05:22:58.897Z,216.00
2018-07-04T05:23:58.854Z,236.00
2018-07-04T05:24:58.842Z,260.00
2018-07-04T05:25:58.759Z,288.00
2018-07-04T05:26:58.846Z,312.00
2018-07-04T05:27:58.922Z,320.00
2018-07-04T05:28:58.838Z,316.00
2018-07-04T05:29:58.804Z,312.00
2018-07-04T05:31:00.790Z,308.00
2018-07-04T05:33:10.173Z,296.00
2018-07-04T05:34:10.176Z,304.00
2018-07-04T05:35:18.268Z,312.00
2018-07-04T05:36:11.071Z,324.00
2018-07-04T05:38:01.590Z,336.00
2018-07-04T05:39:02.469Z,336.00
2018-07-04T05:40:02.456Z,332.00
2018-07-04T05:41:01.490Z,332.00
2018-07-04T05:42:02.594Z,340.00
2018-07-04T05:43:02.304Z,348.00
2018-07-04T05:44:02.432Z,348.00
2018-07-04T05:45:02.266Z,344.00
2018-07-04T05:46:02.382Z,336.00
2018-07-04T05:47:02.387Z,336.00
2018-07-04T05:48:02.237Z,340.00
2018-07-04T05:49:02.264Z,344.00
2018-07-04T05:50:02.305Z,344.00
2018-07-04T05:51:02.460Z,340.00
2018-07-04T05:52:01.434Z,332.00
2018-07-04T05:53:02.693Z,324.00
2018-07-04T05:54:02.375Z,312.00
2018-07-04T05:55:02.481Z,308.00
2018-07-04T05:56:02.405Z,308.00
2018-07-04T05:57:02.141Z,304.00
2018-07-04T05:58:02.158Z,304.00
2018-07-04T05:59:02.142Z,304.00
2018-07-04T06:00:02.261Z,312.00
2018-07-04T06:01:02.220Z,320.00
2018-07-04T06:02:02.243Z,324.00
2018-07-04T06:03:02.208Z,324.00
2018-07-04T06:04:02.088Z,324.00
2018-07-04T06:05:02.208Z,328.00
2018-07-04T06:06:02.082Z,328.00
2018-07-04T06:07:02.040Z,328.00
2018-07-04T06:08:04.617Z,336.00
2018-07-04T06:09:02.531Z,344.00
2018-07-04T06:10:03.088Z,360.00
2018-07-04T06:11:02.013Z,368.00
2018-07-04T06:12:02.078Z,376.00
2018-07-04T06:13:01.992Z,376.00
2018-07-04T06:14:02.010Z,384.00
2018-07-04T06:15:01.994Z,396.00
2018-07-04T06:16:01.947Z,400.00
2018-07-04T06:17:02.038Z,412.00
2018-07-04T06:18:01.930Z,420.00
2018-07-04T06:19:01.946Z,516.00
2018-07-04T06:20:01.930Z,520.00
2018-07-04T06:21:01.906Z,528.00
2018-07-04T06:22:01.919Z,548.00
2018-07-04T06:23:01.895Z,568.00
2018-07-04T06:24:02.206Z,584.00
2018-07-04T06:25:01.860Z,608.00
2018-07-04T06:26:01.941Z,616.00
2018-07-04T06:27:01.840Z,616.00
2018-07-04T06:28:01.931Z,620.00
2018-07-04T06:29:01.964Z,616.00
2018-07-04T06:30:01.812Z,624.00
2018-07-04T06:31:01.785Z,636.00
2018-07-04T06:32:02.055Z,636.00
2018-07-04T06:33:01.909Z,628.00
2018-07-04T06:34:03.132Z,628.00
2018-07-04T06:35:02.021Z,628.00
2018-07-04T06:36:01.746Z,632.00
2018-07-04T06:37:01.854Z,608.00
2018-07-04T06:38:01.739Z,600.00
2018-07-04T06:39:01.753Z,584.00
2018-07-04T06:40:01.719Z,572.00
2018-07-04T06:41:01.713Z,552.00
2018-07-04T06:42:01.709Z,548.00
2018-07-04T06:43:01.666Z,540.00
2018-07-04T06:44:01.785Z,540.00
2018-07-04T06:45:01.657Z,544.00
2018-07-04T06:46:01.647Z,544.00
2018-07-04T06:47:02.197Z,536.00
2018-07-04T06:48:01.909Z,520.00
2018-07-04T06:49:01.692Z,504.00
2018-07-04T06:50:01.612Z,480.00
2018-07-04T06:51:03.028Z,464.00
2018-07-04T06:52:01.575Z,456.00
2018-07-04T06:53:01.592Z,456.00
2018-07-04T06:54:01.681Z,460.00
2018-07-04T06:55:01.567Z,464.00
2018-07-04T06:56:01.994Z,468.00
2018-07-04T06:57:01.827Z,476.00
2018-07-04T06:58:01.617Z,476.00
2018-07-04T06:59:01.501Z,476.00
2018-07-04T07:00:02.395Z,484.00
2018-07-04T07:01:01.510Z,492.00
2018-07-04T07:02:01.540Z,492.00
2018-07-04T07:03:01.486Z,496.00
2018-07-04T07:04:01.612Z,500.00
2018-07-04T07:05:01.488Z,500.00
2018-07-04T07:06:01.462Z,500.00
2018-07-04T07:07:01.476Z,496.00
2018-07-04T07:08:01.420Z,496.00
2018-07-04T07:09:01.406Z,496.00
2018-07-04T07:10:01.398Z,492.00
2018-07-04T07:11:01.527Z,488.00
2018-07-04T07:12:01.393Z,488.00
2018-07-04T07:13:01.542Z,488.00
2018-07-04T07:14:01.361Z,488.00
2018-07-04T07:15:01.358Z,488.00
2018-07-04T07:16:01.322Z,492.00
2018-07-04T07:17:01.341Z,488.00
2018-07-04T07:18:01.310Z,484.00
2018-07-04T07:19:01.514Z,484.00
2018-07-04T07:20:01.319Z,484.00
2018-07-04T07:21:01.446Z,480.00
2018-07-04T07:22:01.321Z,480.00
2018-07-04T07:23:01.376Z,484.00
2018-07-04T07:24:01.243Z,484.00
2018-07-04T07:25:01.248Z,480.00
2018-07-04T07:26:01.238Z,484.00
2018-07-04T07:27:01.222Z,492.00
2018-07-04T07:28:01.198Z,500.00
2018-07-04T07:29:01.183Z,520.00
2018-07-04T07:30:01.345Z,528.00
2018-07-04T07:31:01.174Z,548.00
2018-07-04T07:32:01.198Z,556.00
2018-07-04T07:33:01.166Z,560.00
2018-07-04T07:34:01.253Z,564.00
2018-07-04T07:35:00.200Z,552.00
2018-07-04T07:36:01.134Z,528.00
2018-07-04T07:37:01.219Z,504.00
2018-07-04T07:38:02.778Z,476.00
2018-07-04T07:39:01.214Z,464.00
2018-07-04T07:40:01.436Z,448.00
2018-07-04T07:41:01.176Z,440.00
2018-07-04T07:42:01.223Z,424.00
2018-07-04T07:43:01.083Z,420.00
2018-07-04T07:44:01.030Z,424.00
2018-07-04T07:45:01.041Z,432.00
2018-07-04T07:46:00.061Z,444.00
2018-07-04T07:47:01.036Z,456.00
2018-07-04T07:48:01.086Z,468.00
2018-07-04T07:49:00.980Z,468.00
2018-07-04T07:50:01.095Z,432.00
2018-07-04T07:51:00.960Z,432.00
2018-07-04T07:52:00.940Z,428.00
2018-07-04T07:53:01.072Z,424.00
2018-07-04T07:54:00.990Z,428.00
2018-07-04T07:55:03.251Z,420.00
2018-07-04T07:56:00.965Z,416.00
2018-07-04T07:57:00.937Z,424.00
2018-07-04T07:58:00.933Z,444.00
2018-07-04T07:59:00.860Z,452.00
2018-07-04T08:00:01.071Z,460.00
2018-07-04T08:01:00.897Z,468.00
2018-07-04T08:02:00.943Z,480.00
2018-07-04T08:03:00.926Z,484.00
2018-07-04T08:04:00.805Z,500.00
2018-07-04T08:05:00.802Z,504.00
2018-07-04T08:06:00.939Z,512.00
2018-07-04T08:07:00.919Z,516.00
2018-07-04T08:08:00.792Z,524.00
2018-07-04T08:09:01.806Z,524.00
2018-07-04T08:10:00.961Z,528.00
2018-07-04T08:11:00.927Z,532.00
2018-07-04T08:12:00.852Z,536.00
2018-07-04T08:13:00.784Z,544.00
2018-07-04T08:14:00.696Z,544.00
2018-07-04T08:15:00.792Z,552.00
2018-07-04T08:16:00.807Z,556.00
2018-07-04T08:17:00.695Z,560.00
2018-07-04T08:18:00.912Z,556.00
2018-07-04T08:19:00.744Z,508.00
2018-07-04T08:20:00.674Z,508.00
2018-07-04T08:21:00.652Z,560.00
2018-07-04T08:22:00.648Z,560.00
2018-07-04T08:23:00.623Z,560.00
2018-07-04T08:24:00.791Z,568.00
2018-07-04T08:25:00.758Z,564.00
2018-07-04T08:26:00.718Z,568.00
2018-07-04T08:26:59.583Z,580.00
2018-07-04T08:28:00.703Z,624.00
2018-07-04T08:29:02.081Z,652.00
2018-07-04T08:30:01.771Z,656.00
2018-07-04T08:31:00.527Z,644.00
2018-07-04T08:32:00.695Z,652.00
2018-07-04T08:33:00.679Z,668.00
2018-07-04T08:34:00.498Z,700.00
2018-07-04T08:35:00.506Z,740.00
2018-07-04T08:36:00.501Z,804.00
2018-07-04T08:37:09.878Z,820.00
2018-07-04T08:38:00.510Z,800.00
2018-07-04T08:39:00.650Z,780.00
2018-07-04T08:40:00.558Z,780.00
2018-07-04T08:41:00.586Z,820.00
2018-07-04T08:42:00.598Z,860.00
2018-07-04T08:43:00.415Z,856.00
2018-07-04T08:44:00.548Z,836.00
2018-07-04T08:45:00.395Z,848.00
2018-07-04T08:46:00.378Z,840.00
2018-07-04T08:47:00.479Z,788.00
2018-07-04T08:48:00.371Z,872.00
2018-07-04T08:49:00.457Z,920.00
2018-07-04T08:50:00.386Z,916.00
2018-07-04T08:51:00.326Z,908.00
2018-07-04T08:52:00.453Z,908.00
2018-07-04T08:53:00.443Z,892.00
2018-07-04T08:54:00.461Z,2904.00
2018-07-04T08:55:00.351Z,2880.00
2018-07-04T08:56:00.281Z,2828.00
2018-07-04T08:57:00.409Z,2788.00
2018-07-04T08:57:59.257Z,2764.00
2018-07-04T08:59:00.310Z,2748.00
2018-07-04T09:00:00.267Z,2688.00
2018-07-04T09:01:00.260Z,2596.00
2018-07-04T09:02:00.316Z,2492.00
2018-07-04T09:03:00.268Z,2364.00
2018-07-04T09:04:00.359Z,2244.00
2018-07-04T09:05:00.201Z,2124.00
2018-07-04T09:06:00.180Z,1980.00
2018-07-04T09:07:00.146Z,1856.00
2018-07-04T09:08:00.212Z,1748.00
2018-07-04T09:09:00.218Z,1640.00
2018-07-04T09:10:03.584Z,1528.00
2018-07-04T09:10:59.128Z,1416.00
2018-07-04T09:12:00.113Z,1320.00
2018-07-04T09:14:10.118Z,1140.00
2018-07-04T09:15:10.916Z,1080.00
2018-07-04T09:16:11.013Z,1036.00
2018-07-04T09:17:10.968Z,1008.00
2018-07-04T09:18:11.004Z,1020.00
2018-07-04T09:19:12.066Z,980.00
2018-07-04T09:20:09.856Z,988.00
2018-07-04T09:21:10.838Z,1028.00
2018-07-04T09:22:10.897Z,1084.00
2018-07-04T09:23:10.958Z,1156.00
2018-07-04T09:24:11.045Z,1240.00
2018-07-04T09:26:07.845Z,1420.00
2018-07-04T09:27:09.378Z,1520.00
2018-07-04T09:28:06.592Z,1624.00
2018-07-04T09:29:06.541Z,1744.00
2018-07-04T09:30:08.092Z,1856.00
2018-07-04T09:31:05.490Z,1964.00
2018-07-04T09:33:32.646Z,2332.00
2018-07-04T09:34:33.583Z,2512.00
2018-07-04T09:35:33.555Z,2692.00
2018-07-04T09:36:33.733Z,2880.00
2018-07-04T09:37:33.521Z,3100.00
2018-07-04T09:39:46.091Z,3376.00
2018-07-04T09:40:42.550Z,3448.00
2018-07-04T09:41:43.508Z,3508.00
2018-07-04T09:42:43.493Z,3560.00
2018-07-04T09:43:43.846Z,3524.00
2018-07-04T09:44:43.468Z,3556.00
2018-07-04T09:45:43.595Z,3580.00
2018-07-04T09:46:43.454Z,3608.00
2018-07-04T09:47:43.492Z,3660.00
2018-07-04T09:48:43.416Z,3604.00
2018-07-04T09:49:43.482Z,3520.00
2018-07-04T09:50:43.562Z,3452.00
2018-07-04T09:51:43.399Z,3408.00
2018-07-04T09:52:43.421Z,3408.00
2018-07-04T09:53:43.390Z,3376.00
2018-07-04T09:54:43.357Z,3300.00
2018-07-04T09:55:43.689Z,3212.00
2018-07-04T09:56:43.345Z,3184.00
2018-07-04T09:57:43.382Z,3100.00
2018-07-04T09:58:43.486Z,2960.00
2018-07-04T09:59:43.357Z,2876.00
2018-07-04T10:00:43.310Z,2856.00
2018-07-04T10:01:43.302Z,2840.00
2018-07-04T10:02:43.290Z,2844.00
2018-07-04T10:03:43.399Z,2868.00
2018-07-04T10:04:43.422Z,2880.00
2018-07-04T10:05:43.276Z,2928.00
2018-07-04T10:06:43.473Z,2960.00
2018-07-04T10:07:43.448Z,3008.00
2018-07-04T10:08:43.352Z,940.00
2018-07-04T10:09:43.218Z,956.00
2018-07-04T10:10:43.177Z,952.00
2018-07-04T10:11:43.297Z,948.00
2018-07-04T10:12:43.381Z,948.00
2018-07-04T10:13:43.274Z,928.00
2018-07-04T10:14:43.157Z,916.00
2018-07-04T10:15:43.152Z,908.00
2018-07-04T10:16:43.134Z,892.00
2018-07-04T10:17:43.100Z,888.00
2018-07-04T10:18:43.118Z,884.00
2018-07-04T10:19:43.107Z,892.00
2018-07-04T10:20:43.097Z,880.00
2018-07-04T10:21:43.114Z,876.00
2018-07-04T10:22:43.062Z,880.00
2018-07-04T10:23:42.120Z,872.00
2018-07-04T10:24:43.200Z,876.00
2018-07-04T10:25:43.033Z,864.00
2018-07-04T10:26:43.047Z,840.00
2018-07-04T10:27:43.016Z,816.00
2018-07-04T10:28:43.140Z,788.00
2018-07-04T10:29:43.129Z,756.00
2018-07-04T10:30:42.980Z,720.00
2018-07-04T10:31:48.796Z,684.00
2018-07-04T10:32:42.946Z,656.00
2018-07-04T10:33:42.994Z,644.00
2018-07-04T10:34:42.956Z,624.00
2018-07-04T10:35:43.020Z,628.00
2018-07-04T10:36:42.935Z,612.00
2018-07-04T10:37:42.955Z,596.00
2018-07-04T10:38:43.001Z,584.00
2018-07-04T10:39:42.880Z,576.00
2018-07-04T10:40:42.884Z,588.00
2018-07-04T10:41:42.892Z,600.00
2018-07-04T10:42:43.016Z,612.00
2018-07-04T10:43:42.851Z,628.00
2018-07-04T10:44:42.865Z,648.00
2018-07-04T10:45:42.814Z,660.00
2018-07-04T10:46:42.815Z,676.00
2018-07-04T10:47:42.795Z,692.00
2018-07-04T10:48:42.813Z,712.00
2018-07-04T10:49:42.800Z,732.00
2018-07-04T10:50:42.787Z,760.00
2018-07-04T10:51:42.860Z,784.00
2018-07-04T10:52:42.777Z,804.00
2018-07-04T10:53:42.951Z,828.00
2018-07-04T10:54:42.742Z,860.00
2018-07-04T10:55:42.724Z,900.00
2018-07-04T10:56:42.725Z,928.00
2018-07-04T10:57:42.699Z,948.00
2018-07-04T10:58:42.709Z,964.00
2018-07-04T10:59:42.658Z,976.00
2018-07-04T11:00:42.815Z,968.00
2018-07-04T11:01:42.666Z,964.00
2018-07-04T11:02:42.799Z,956.00
2018-07-04T11:03:42.749Z,940.00
2018-07-04T11:04:42.759Z,928.00
2018-07-04T11:05:42.727Z,916.00
2018-07-04T11:06:42.622Z,904.00
2018-07-04T11:07:42.716Z,904.00
2018-07-04T11:08:42.695Z,904.00
2018-07-04T11:09:42.581Z,896.00
2018-07-04T11:10:42.580Z,888.00
2018-07-04T11:11:43.484Z,884.00
2018-07-04T11:12:42.558Z,888.00
2018-07-04T11:13:42.543Z,892.00
2018-07-04T11:14:42.508Z,896.00
2018-07-04T11:15:42.527Z,892.00
2018-07-04T11:16:42.679Z,888.00
2018-07-04T11:17:42.619Z,892.00
2018-07-04T11:18:42.487Z,888.00
2018-07-04T11:19:42.594Z,892.00
2018-07-04T11:20:42.793Z,888.00
2018-07-04T11:21:41.469Z,900.00
2018-07-04T11:22:42.562Z,912.00
2018-07-04T11:23:42.418Z,944.00
2018-07-04T11:24:42.420Z,976.00
2018-07-04T11:25:42.420Z,1004.00
2018-07-04T11:26:42.412Z,1012.00
2018-07-04T11:27:42.399Z,1000.00
2018-07-04T11:28:42.386Z,964.00
2018-07-04T11:29:42.390Z,920.00
2018-07-04T11:30:42.369Z,860.00
2018-07-04T11:31:42.356Z,808.00
2018-07-04T11:32:42.447Z,764.00
2018-07-04T11:33:42.444Z,720.00
2018-07-04T11:34:42.304Z,676.00
2018-07-04T11:35:42.414Z,640.00
2018-07-04T11:36:42.275Z,600.00
2018-07-04T11:37:42.417Z,568.00
2018-07-04T11:38:42.676Z,536.00
2018-07-04T11:39:42.268Z,508.00
2018-07-04T11:40:42.388Z,480.00
2018-07-04T11:41:42.239Z,456.00
2018-07-04T11:42:42.241Z,432.00
2018-07-04T11:43:42.585Z,416.00
2018-07-04T11:44:42.199Z,392.00
2018-07-04T11:45:42.209Z,376.00
2018-07-04T11:46:42.283Z,360.00
2018-07-04T11:47:41.209Z,344.00
2018-07-04T11:48:42.177Z,332.00
2018-07-04T11:49:42.171Z,328.00
2018-07-04T11:50:42.161Z,320.00
2018-07-04T11:51:42.157Z,312.00
2018-07-04T11:52:42.249Z,308.00
2018-07-04T11:53:42.236Z,300.00
2018-07-04T11:54:42.310Z,288.00
2018-07-04T11:55:42.105Z,284.00
2018-07-04T11:56:42.133Z,272.00
2018-07-04T11:57:42.080Z,264.00
2018-07-04T11:58:42.069Z,260.00
2018-07-04T11:59:42.085Z,248.00
2018-07-04T12:00:42.114Z,240.00
2018-07-04T12:01:41.164Z,232.00
2018-07-04T12:02:42.086Z,224.00
2018-07-04T12:03:42.034Z,220.00
2018-07-04T12:04:42.011Z,212.00
2018-07-04T12:05:41.992Z,208.00
2018-07-04T12:06:40.970Z,208.00
2018-07-04T12:07:42.103Z,200.00
2018-07-04T12:08:41.990Z,200.00
2018-07-04T12:09:41.958Z,200.00
2018-07-04T12:10:42.943Z,196.00
2018-07-04T12:11:41.934Z,196.00
2018-07-04T12:12:41.920Z,188.00
2018-07-04T12:13:42.076Z,184.00
2018-07-04T12:14:41.907Z,180.00
2018-07-04T12:15:41.873Z,176.00
2018-07-04T12:16:41.890Z,168.00
2018-07-04T12:17:41.871Z,164.00
2018-07-04T12:18:41.867Z,164.00
2018-07-04T12:19:41.859Z,156.00
2018-07-04T12:20:41.992Z,152.00
2018-07-04T12:21:41.834Z,152.00
2018-07-04T12:22:42.683Z,148.00
2018-07-04T12:23:41.827Z,144.00
2018-07-04T12:24:41.848Z,144.00
2018-07-04T12:25:41.841Z,140.00
2018-07-04T12:26:41.879Z,140.00
2018-07-04T12:27:41.771Z,140.00
2018-07-04T12:28:41.771Z,136.00
2018-07-04T12:29:42.196Z,132.00
2018-07-04T12:30:41.736Z,132.00
2018-07-04T12:31:41.765Z,128.00
2018-07-04T12:32:42.513Z,128.00
2018-07-04T12:33:41.938Z,128.00
2018-07-04T12:34:41.707Z,128.00
2018-07-04T12:35:41.819Z,128.00
2018-07-04T12:36:42.042Z,128.00
2018-07-04T12:37:41.673Z,128.00
2018-07-04T12:38:41.717Z,124.00
2018-07-04T12:39:41.651Z,124.00
2018-07-04T12:40:41.655Z,128.00
2018-07-04T12:41:41.940Z,124.00
2018-07-04T12:42:41.704Z,124.00
2018-07-04T12:43:41.763Z,128.00
2018-07-04T12:44:41.589Z,128.00
2018-07-04T12:45:41.686Z,124.00
2018-07-04T12:46:41.566Z,124.00
2018-07-04T12:47:42.538Z,124.00
2018-07-04T12:48:41.659Z,124.00
2018-07-04T12:49:41.674Z,124.00
2018-07-04T12:50:41.516Z,124.00
2018-07-04T12:51:41.602Z,124.00
2018-07-04T12:52:41.631Z,128.00
2018-07-04T12:53:44.161Z,128.00
2018-07-04T12:54:41.567Z,128.00
2018-07-04T12:55:41.479Z,128.00
2018-07-04T12:56:41.637Z,132.00
2018-07-04T12:57:41.573Z,132.00
2018-07-04T12:58:41.446Z,132.00
2018-07-04T12:59:41.440Z,132.00
2018-07-04T13:00:41.418Z,132.00
2018-07-04T13:01:41.512Z,136.00
2018-07-04T13:02:48.165Z,140.00
2018-07-04T13:03:42.492Z,140.00
2018-07-04T13:04:41.538Z,144.00
2018-07-04T13:05:41.408Z,144.00
2018-07-04T13:06:41.345Z,148.00
2018-07-04T13:07:41.481Z,148.00
2018-07-04T13:08:41.344Z,152.00
2018-07-04T13:09:41.468Z,152.00
2018-07-04T13:10:41.426Z,152.00
2018-07-04T13:11:41.293Z,152.00
2018-07-04T13:12:41.464Z,156.00
2018-07-04T13:13:41.273Z,156.00
2018-07-04T13:14:41.369Z,156.00
2018-07-04T13:15:41.253Z,160.00
2018-07-04T13:16:41.355Z,164.00
2018-07-04T13:17:41.350Z,168.00
2018-07-04T13:18:41.218Z,176.00
2018-07-04T13:19:41.367Z,184.00
2018-07-04T13:20:41.387Z,192.00
2018-07-04T13:21:40.210Z,204.00
2018-07-04T13:22:41.308Z,212.00
2018-07-04T13:23:41.356Z,224.00
2018-07-04T13:24:41.173Z,232.00
2018-07-04T13:25:41.711Z,240.00
2018-07-04T13:26:41.255Z,248.00
2018-07-04T13:27:41.182Z,256.00
2018-07-04T13:28:41.191Z,260.00
2018-07-04T13:29:41.238Z,268.00
2018-07-04T13:30:41.225Z,276.00
2018-07-04T13:31:41.227Z,288.00
2018-07-04T13:32:41.067Z,300.00
2018-07-04T13:33:41.061Z,308.00
2018-07-04T13:34:41.068Z,328.00
2018-07-04T13:35:42.082Z,336.00
2018-07-04T13:36:41.163Z,348.00
2018-07-04T13:37:41.019Z,356.00
2018-07-04T13:38:41.041Z,368.00
2018-07-04T13:39:41.202Z,376.00
2018-07-04T13:40:41.007Z,384.00
2018-07-04T13:41:40.980Z,392.00
2018-07-04T13:42:40.981Z,400.00
2018-07-04T13:43:40.978Z,408.00
2018-07-04T13:44:40.971Z,420.00
2018-07-04T13:45:41.092Z,436.00
2018-07-04T13:46:41.279Z,444.00
2018-07-04T13:47:40.931Z,460.00
2018-07-04T13:48:45.382Z,476.00
2018-07-04T13:49:40.955Z,496.00
2018-07-04T13:50:40.892Z,508.00
2018-07-04T13:51:40.883Z,520.00
2018-07-04T13:52:40.891Z,536.00
2018-07-04T13:53:40.844Z,548.00
2018-07-04T13:54:42.484Z,556.00
2018-07-04T13:55:42.016Z,564.00
2018-07-04T13:56:41.444Z,572.00
2018-07-04T13:57:40.804Z,576.00
2018-07-04T13:58:40.808Z,584.00
2018-07-04T13:59:41.119Z,592.00
2018-07-04T14:00:41.215Z,608.00
2018-07-04T14:01:40.775Z,624.00
2018-07-04T14:02:40.823Z,640.00
2018-07-04T14:03:42.569Z,664.00
2018-07-04T14:04:41.084Z,684.00
2018-07-04T14:05:40.845Z,712.00
2018-07-04T14:06:40.797Z,736.00
2018-07-04T14:07:40.774Z,764.00
2018-07-04T14:08:40.782Z,792.00
2018-07-04T14:09:40.703Z,840.00
2018-07-04T14:10:40.824Z,920.00
2018-07-04T14:11:41.883Z,1020.00
2018-07-04T14:12:41.925Z,1152.00
2018-07-04T14:13:40.928Z,1296.00
2018-07-04T14:14:40.634Z,1444.00
2018-07-04T14:15:40.628Z,1596.00
2018-07-04T14:16:40.714Z,1744.00
2018-07-04T14:17:41.109Z,1884.00
2018-07-04T14:18:40.705Z,2048.00
2018-07-04T14:19:40.668Z,2184.00
2018-07-04T14:20:41.391Z,2272.00
2018-07-04T14:21:40.550Z,2312.00
2018-07-04T14:22:43.606Z,2308.00
2018-07-04T14:23:41.521Z,2340.00
2018-07-04T14:24:41.836Z,2372.00
2018-07-04T14:25:40.511Z,2356.00
2018-07-04T14:26:40.703Z,2320.00
2018-07-04T14:27:40.498Z,2300.00
2018-07-04T14:28:42.420Z,2240.00
2018-07-04T14:29:40.473Z,2144.00
2018-07-04T14:30:41.040Z,2036.00
2018-07-04T14:31:40.470Z,1912.00
2018-07-04T14:32:40.552Z,1820.00
2018-07-04T14:33:40.543Z,1728.00
2018-07-04T14:34:40.425Z,1636.00
2018-07-04T14:35:40.502Z,1572.00
2018-07-04T14:36:40.516Z,1476.00
2018-07-04T14:37:40.511Z,1376.00
2018-07-04T14:38:40.589Z,1280.00
2018-07-04T14:39:40.773Z,1176.00
2018-07-04T14:40:40.466Z,1072.00
2018-07-04T14:41:40.362Z,972.00
2018-07-04T14:42:40.351Z,888.00
2018-07-04T14:43:40.359Z,816.00
2018-07-04T14:44:40.349Z,768.00
2018-07-04T14:45:40.408Z,728.00
2018-07-04T14:46:40.326Z,696.00
2018-07-04T14:47:40.315Z,664.00
2018-07-04T14:48:40.276Z,640.00
2018-07-04T14:49:40.246Z,616.00
2018-07-04T14:50:40.248Z,596.00
2018-07-04T14:51:40.243Z,580.00
2018-07-04T14:52:40.334Z,564.00
2018-07-04T14:53:40.221Z,552.00
2018-07-04T14:54:40.249Z,540.00
2018-07-04T14:55:40.249Z,532.00
2018-07-04T14:56:40.212Z,528.00
2018-07-04T14:57:40.195Z,520.00
2018-07-04T14:58:40.150Z,520.00
2018-07-04T14:59:40.141Z,512.00
2018-07-04T15:00:40.262Z,508.00
2018-07-04T15:01:40.153Z,496.00
2018-07-04T15:02:40.123Z,488.00
2018-07-04T15:03:40.132Z,480.00
2018-07-04T15:04:40.259Z,468.00
2018-07-04T15:05:40.089Z,456.00
2018-07-04T15:06:40.196Z,444.00
2018-07-04T15:07:40.081Z,436.00
2018-07-04T15:08:40.172Z,424.00
2018-07-04T15:09:40.068Z,408.00
2018-07-04T15:10:40.085Z,400.00
2018-07-04T15:11:40.134Z,396.00
2018-07-04T15:12:40.133Z,396.00
2018-07-04T15:13:39.999Z,396.00
2018-07-04T15:14:40.089Z,400.00
2018-07-04T15:15:40.079Z,400.00
2018-07-04T15:16:40.085Z,408.00
2018-07-04T15:17:39.968Z,412.00
2018-07-04T15:18:40.042Z,420.00
2018-07-04T15:19:39.937Z,428.00
2018-07-04T15:20:39.964Z,432.00
2018-07-04T15:21:39.318Z,436.00
2018-07-04T15:22:40.038Z,440.00
2018-07-04T15:23:39.894Z,440.00
2018-07-04T15:24:39.882Z,448.00
2018-07-04T15:25:39.876Z,452.00
2018-07-04T15:26:40.894Z,456.00
2018-07-04T15:27:39.973Z,460.00
2018-07-04T15:28:39.991Z,464.00
2018-07-04T15:29:40.031Z,468.00
2018-07-04T15:30:39.916Z,472.00
2018-07-04T15:31:39.814Z,476.00
2018-07-04T15:32:39.919Z,476.00
2018-07-04T15:33:39.803Z,476.00
2018-07-04T15:34:39.790Z,472.00
2018-07-04T15:35:39.774Z,476.00
2018-07-04T15:36:39.762Z,468.00